createdAt,value
2022-09-11T00:01:14.389Z,92.96
2022-09-11T00:03:45.059Z,92.45
2022-09-11T00:06:27.421Z,92.59
2022-09-11T00:09:00.689Z,92.00
2022-09-11T00:11:30.505Z,92.12
2022-09-11T00:13:59.169Z,91.68
2022-09-11T00:16:28.796Z,91.68
2022-09-11T00:19:00.149Z,91.29
2022-09-11T00:21:29.435Z,91.13
2022-09-11T00:23:58.127Z,91.52
2022-09-11T00:26:26.407Z,91.25
2022-09-11T00:28:55.313Z,91.14
2022-09-11T00:31:25.796Z,90.94
2022-09-11T00:33:53.968Z,90.67
2022-09-11T00:36:24.509Z,90.52
2022-09-11T00:38:52.589Z,90.39
2022-09-11T00:41:22.632Z,90.46
2022-09-11T00:44:00.675Z,89.87
2022-09-11T00:46:35.631Z,90.01
2022-09-11T00:49:07.948Z,90.29
2022-09-11T00:51:41.106Z,90.32
2022-09-11T00:54:13.573Z,90.30
2022-09-11T00:56:44.337Z,90.14
2022-09-11T00:59:13.569Z,90.30
2022-09-11T01:01:42.003Z,90.23
2022-09-11T01:04:10.566Z,90.61
2022-09-11T01:06:40.763Z,90.61
2022-09-11T01:09:08.673Z,90.42
2022-09-11T01:11:54.639Z,90.24
2022-09-11T01:14:34.664Z,90.55
2022-09-11T01:17:15.354Z,90.41
2022-09-11T01:20:05.596Z,90.43
2022-09-11T01:23:03.024Z,91.01
2022-09-11T01:25:45.205Z,91.37
2022-09-11T01:28:17.786Z,92.63
2022-09-11T01:30:51.153Z,92.71
2022-09-11T01:33:28.287Z,94.38
2022-09-11T01:36:03.738Z,94.72
2022-09-11T01:38:37.797Z,95.15
2022-09-11T01:41:09.783Z,95.78
2022-09-11T01:43:43.283Z,96.47
2022-09-11T01:46:17.334Z,96.70
2022-09-11T01:48:51.049Z,96.47
2022-09-11T01:51:24.240Z,97.52
2022-09-11T01:53:54.819Z,97.08
2022-09-11T01:56:28.011Z,97.63
2022-09-11T01:59:01.857Z,97.80
2022-09-11T02:01:34.084Z,97.95
2022-09-11T02:04:07.820Z,97.53
2022-09-11T02:06:40.851Z,97.43
2022-09-11T02:09:12.326Z,97.95
2022-09-11T02:11:42.666Z,97.52
2022-09-11T02:14:21.217Z,97.47
2022-09-11T02:16:51.934Z,97.81
2022-09-11T02:19:21.344Z,97.46
2022-09-11T02:21:51.018Z,97.66
2022-09-11T02:24:20.876Z,97.47
2022-09-11T02:26:52.672Z,97.48
2022-09-11T02:29:22.692Z,97.34
2022-09-11T02:31:52.205Z,97.07
2022-09-11T02:34:27.077Z,96.66
2022-09-11T02:37:09.332Z,96.37
2022-09-11T02:40:01.265Z,96.23
2022-09-11T02:42:39.537Z,96.12
2022-09-11T02:45:20.044Z,95.42
2022-09-11T02:47:59.107Z,95.61
2022-09-11T02:50:35.201Z,95.56
2022-09-11T02:53:08.498Z,96.16
2022-09-11T02:55:50.942Z,95.46
2022-09-11T02:58:26.897Z,95.84
2022-09-11T03:00:58.820Z,96.28
2022-09-11T03:03:26.913Z,96.68
2022-09-11T03:05:55.076Z,96.89
2022-09-11T03:08:22.924Z,97.07
2022-09-11T03:10:50.789Z,97.07
2022-09-11T03:13:18.556Z,97.50
2022-09-11T03:15:46.580Z,97.78
2022-09-11T03:18:15.856Z,97.64
2022-09-11T03:20:47.019Z,97.34
2022-09-11T03:23:15.095Z,97.35
2022-09-11T03:25:42.888Z,97.69
2022-09-11T03:28:10.756Z,97.65
2022-09-11T03:30:38.615Z,97.41
2022-09-11T03:33:06.468Z,97.79
2022-09-11T03:35:36.509Z,97.81
2022-09-11T03:38:04.310Z,97.79
2022-09-11T03:40:32.104Z,97.56
2022-09-11T03:43:00.028Z,97.62
2022-09-11T03:45:27.994Z,98.25
2022-09-11T03:47:55.819Z,98.36
2022-09-11T03:50:23.851Z,97.83
2022-09-11T03:52:53.262Z,97.97
2022-09-11T03:55:23.076Z,97.96
2022-09-11T03:57:51.166Z,98.17
2022-09-11T04:00:19.115Z,98.37
2022-09-11T04:02:46.873Z,98.80
2022-09-11T04:05:14.861Z,98.84
2022-09-11T04:07:42.647Z,98.41
2022-09-11T04:10:12.333Z,98.72
2022-09-11T04:12:40.143Z,98.93
2022-09-11T04:15:08.906Z,98.44
2022-09-11T04:17:37.058Z,98.10
2022-09-11T04:20:05.294Z,98.54
2022-09-11T04:22:33.082Z,98.53
2022-09-11T04:25:02.281Z,97.93
2022-09-11T04:27:32.035Z,97.58
2022-09-11T04:29:59.940Z,97.74
2022-09-11T04:32:28.381Z,98.10
2022-09-11T04:34:56.377Z,98.01
2022-09-11T04:37:24.134Z,97.77
2022-09-11T04:39:51.904Z,97.18
2022-09-11T04:42:19.817Z,96.84
2022-09-11T04:44:49.047Z,96.77
2022-09-11T04:47:17.261Z,96.59
2022-09-11T04:49:46.825Z,96.09
2022-09-11T04:52:15.263Z,96.38
2022-09-11T04:54:43.306Z,96.22
2022-09-11T04:57:11.008Z,96.09
2022-09-11T04:59:38.997Z,95.96
2022-09-11T05:02:08.456Z,95.85
2022-09-11T05:04:36.473Z,95.60
2022-09-11T05:07:04.674Z,95.70
2022-09-11T05:09:32.895Z,95.79
2022-09-11T05:12:02.150Z,95.88
2022-09-11T05:14:30.101Z,95.63
2022-09-11T05:16:57.894Z,95.75
2022-09-11T05:19:27.154Z,95.30
2022-09-11T05:21:55.046Z,95.14
2022-09-11T05:24:22.815Z,95.23
2022-09-11T05:26:50.583Z,94.85
2022-09-11T05:29:19.655Z,95.50
2022-09-11T05:31:47.707Z,95.37
2022-09-11T05:34:15.557Z,95.59
2022-09-11T05:36:46.052Z,96.05
2022-09-11T05:39:13.859Z,96.02
2022-09-11T05:41:41.728Z,96.22
2022-09-11T05:44:09.456Z,96.48
2022-09-11T05:46:37.561Z,96.45
2022-09-11T05:49:05.662Z,96.25
2022-09-11T05:51:35.799Z,96.82
2022-09-11T05:54:05.461Z,96.84
2022-09-11T05:56:33.228Z,97.15
2022-09-11T05:59:02.337Z,97.14
2022-09-11T06:01:31.124Z,97.06
2022-09-11T06:03:59.218Z,96.88
2022-09-11T06:06:27.642Z,97.24
2022-09-11T06:08:55.985Z,96.94
2022-09-11T06:11:25.203Z,97.61
2022-09-11T06:13:53.143Z,96.71
2022-09-11T06:16:23.521Z,96.97
2022-09-11T06:18:53.215Z,97.05
2022-09-11T06:21:22.477Z,96.49
2022-09-11T06:23:51.984Z,96.69
2022-09-11T06:26:22.449Z,96.41
2022-09-11T06:28:52.776Z,96.20
2022-09-11T06:31:22.505Z,96.37
2022-09-11T06:33:51.068Z,96.81
2022-09-11T06:36:20.273Z,96.74
2022-09-11T06:38:53.277Z,96.32
2022-09-11T06:41:21.007Z,96.34
2022-09-11T06:43:49.269Z,96.24
2022-09-11T06:46:20.031Z,95.81
2022-09-11T06:48:49.653Z,96.45
2022-09-11T06:51:19.439Z,95.62
2022-09-11T06:53:48.642Z,95.28
2022-09-11T06:56:18.853Z,95.43
2022-09-11T06:58:47.086Z,95.27
2022-09-11T07:01:16.567Z,95.58
2022-09-11T07:03:47.373Z,95.66
2022-09-11T07:06:16.562Z,95.83
2022-09-11T07:08:44.679Z,95.95
2022-09-11T07:11:13.278Z,95.67
2022-09-11T07:13:42.068Z,95.35
2022-09-11T07:16:12.691Z,95.32
2022-09-11T07:18:42.266Z,95.50
2022-09-11T07:21:14.066Z,95.67
2022-09-11T07:23:43.039Z,96.12
2022-09-11T07:26:13.679Z,95.79
2022-09-11T07:28:41.899Z,95.55
2022-09-11T07:31:11.692Z,95.52
2022-09-11T07:33:40.071Z,95.24
2022-09-11T07:36:12.137Z,95.54
2022-09-11T07:38:42.759Z,95.24
2022-09-11T07:41:11.706Z,95.50
2022-09-11T07:43:40.796Z,95.36
2022-09-11T07:46:11.350Z,95.07
2022-09-11T07:48:40.852Z,95.19
2022-09-11T07:51:11.572Z,95.14
2022-09-11T07:53:42.723Z,95.31
2022-09-11T07:56:13.055Z,95.13
2022-09-11T07:58:42.738Z,95.08
2022-09-11T08:01:12.715Z,95.37
2022-09-11T08:03:40.626Z,95.21
2022-09-11T08:06:10.705Z,95.13
2022-09-11T08:08:38.641Z,95.61
2022-09-11T08:11:10.602Z,95.54
2022-09-11T08:13:39.031Z,95.65
2022-09-11T08:16:08.057Z,95.33
2022-09-11T08:18:37.190Z,95.07
2022-09-11T08:21:12.574Z,95.38
2022-09-11T08:23:42.700Z,95.74
2022-09-11T08:26:14.245Z,95.46
2022-09-11T08:28:46.893Z,95.71
2022-09-11T08:31:14.994Z,95.11
2022-09-11T08:33:42.984Z,95.44
2022-09-11T08:36:14.673Z,95.06
2022-09-11T08:38:42.905Z,95.03
2022-09-11T08:41:22.311Z,94.99
2022-09-11T08:43:56.725Z,94.82
2022-09-11T08:46:27.951Z,94.54
2022-09-11T08:49:03.531Z,94.43
2022-09-11T08:51:32.348Z,94.31
2022-09-11T08:54:02.415Z,94.25
2022-09-11T08:56:33.709Z,94.58
2022-09-11T08:59:20.321Z,94.46
2022-09-11T09:02:00.692Z,94.56
2022-09-11T09:04:42.052Z,94.77
2022-09-11T09:07:20.108Z,94.97
2022-09-11T09:10:00.607Z,95.32
2022-09-11T09:12:39.846Z,95.92
2022-09-11T09:15:20.323Z,95.96
2022-09-11T09:17:53.885Z,96.19
2022-09-11T09:20:27.171Z,96.31
2022-09-11T09:23:00.174Z,96.72
2022-09-11T09:25:28.869Z,96.49
2022-09-11T09:28:04.863Z,96.15
2022-09-11T09:30:41.856Z,96.10
2022-09-11T09:33:25.882Z,95.40
2022-09-11T09:35:54.389Z,95.51
2022-09-11T09:38:26.851Z,95.69
2022-09-11T09:41:05.234Z,95.43
2022-09-11T09:43:48.330Z,94.86
2022-09-11T09:46:24.989Z,95.44
2022-09-11T09:48:53.000Z,95.04
2022-09-11T09:51:20.747Z,95.14
2022-09-11T09:53:53.046Z,95.15
2022-09-11T09:56:23.751Z,95.09
2022-09-11T09:59:01.131Z,94.80
2022-09-11T10:01:45.406Z,94.52
2022-09-11T10:04:17.245Z,95.21
2022-09-11T10:06:46.564Z,94.48
2022-09-11T10:09:24.568Z,94.43
2022-09-11T10:11:55.934Z,95.10
2022-09-11T10:14:49.770Z,95.24
2022-09-11T10:17:21.325Z,95.05
2022-09-11T10:19:49.200Z,95.09
2022-09-11T10:22:29.074Z,93.98
2022-09-11T10:25:12.449Z,93.51
2022-09-11T10:27:46.375Z,94.18
2022-09-11T10:30:36.420Z,93.73
2022-09-11T10:33:08.205Z,94.02
2022-09-11T10:35:37.855Z,93.67
2022-09-11T10:38:18.936Z,92.74
2022-09-11T10:41:15.935Z,91.98
2022-09-11T10:43:48.688Z,92.99
2022-09-11T10:46:26.381Z,92.05
2022-09-11T10:48:58.391Z,92.99
2022-09-11T10:51:27.713Z,92.68
2022-09-11T10:54:05.642Z,90.58
2022-09-11T10:56:39.334Z,91.70
2022-09-11T10:59:18.036Z,90.91
2022-09-11T11:01:47.396Z,91.41
2022-09-11T11:04:15.251Z,91.63
2022-09-11T11:06:59.653Z,89.01
2022-09-11T11:09:39.899Z,87.98
2022-09-11T11:12:21.737Z,87.68
2022-09-11T11:15:20.174Z,88.14
2022-09-11T11:17:58.757Z,88.94
2022-09-11T11:20:35.507Z,88.21
2022-09-11T11:23:25.451Z,86.50
2022-09-11T11:26:05.567Z,85.88
2022-09-11T11:29:03.197Z,86.37
2022-09-11T11:31:52.667Z,86.60
2022-09-11T11:34:39.914Z,85.34
2022-09-11T11:37:13.266Z,86.39
2022-09-11T11:39:49.193Z,83.17
2022-09-11T11:42:24.420Z,84.08
2022-09-11T11:44:55.333Z,84.84
2022-09-11T11:47:30.021Z,85.00
2022-09-11T11:50:07.182Z,83.36
2022-09-11T11:52:46.271Z,83.18
2022-09-11T11:55:22.455Z,82.44
2022-09-11T11:57:58.745Z,82.10
2022-09-11T12:00:30.011Z,82.49
2022-09-11T12:03:03.365Z,82.04
2022-09-11T12:05:35.050Z,80.36
2022-09-11T12:08:03.612Z,80.82
2022-09-11T12:10:34.685Z,80.02
2022-09-11T12:13:06.767Z,80.36
2022-09-11T12:15:35.931Z,80.97
2022-09-11T12:18:05.543Z,79.58
2022-09-11T12:20:40.665Z,78.73
2022-09-11T12:23:35.953Z,78.29
2022-09-11T12:26:22.217Z,75.97
2022-09-11T12:28:50.728Z,78.00
2022-09-11T12:31:19.469Z,78.91
2022-09-11T12:33:55.595Z,78.13
2022-09-11T12:36:49.658Z,76.03
2022-09-11T12:39:25.446Z,76.58
2022-09-11T12:41:53.421Z,76.24
2022-09-11T12:44:32.654Z,75.81
2022-09-11T12:47:16.832Z,75.76
2022-09-11T12:49:54.760Z,76.34
2022-09-11T12:52:35.904Z,74.97
2022-09-11T12:55:22.735Z,75.72
2022-09-11T12:57:52.252Z,76.70
2022-09-11T13:00:24.532Z,74.39
2022-09-11T13:02:56.946Z,73.27
2022-09-11T13:05:28.344Z,73.64
2022-09-11T13:08:00.892Z,73.86
2022-09-11T13:10:36.368Z,73.61
2022-09-11T13:13:06.492Z,74.45
2022-09-11T13:15:40.981Z,75.60
2022-09-11T13:18:32.258Z,72.77
2022-09-11T13:21:02.518Z,74.08
2022-09-11T13:23:32.815Z,72.94
2022-09-11T13:26:02.861Z,72.72
2022-09-11T13:28:32.136Z,73.01
2022-09-11T13:31:05.091Z,72.45
2022-09-11T13:33:33.803Z,72.80
2022-09-11T13:36:06.113Z,71.46
2022-09-11T13:38:37.416Z,70.37
2022-09-11T13:41:09.072Z,71.16
2022-09-11T13:43:40.128Z,70.17
2022-09-11T13:46:26.860Z,69.56
2022-09-11T13:48:59.267Z,69.99
2022-09-11T13:51:31.265Z,68.69
2022-09-11T13:54:10.197Z,68.38
2022-09-11T13:59:47.633Z,68.12
2022-09-11T14:02:49.480Z,66.85
2022-09-11T14:05:21.978Z,66.63
2022-09-11T14:07:59.969Z,66.08
2022-09-11T14:10:32.533Z,66.71
2022-09-11T14:13:06.501Z,65.62
2022-09-11T14:15:41.048Z,64.17
2022-09-11T14:18:15.140Z,65.20
2022-09-11T14:20:45.919Z,63.02
2022-09-11T14:23:21.144Z,64.32
2022-09-11T14:26:12.617Z,64.09
2022-09-11T14:28:50.436Z,64.62
2022-09-11T14:31:30.286Z,62.77
2022-09-11T14:34:12.680Z,62.32
2022-09-11T14:36:44.171Z,62.66
2022-09-11T14:39:16.702Z,62.35
2022-09-11T14:41:46.623Z,62.50
2022-09-11T14:44:15.724Z,62.38
2022-09-11T14:46:43.985Z,62.43
2022-09-11T14:49:12.934Z,60.81
2022-09-11T14:51:42.399Z,61.21
2022-09-11T14:54:15.877Z,61.35
2022-09-11T14:56:46.604Z,62.29
2022-09-11T14:59:14.417Z,60.36
2022-09-11T15:01:42.864Z,59.73
2022-09-11T15:04:17.030Z,60.06
2022-09-11T15:06:44.957Z,59.70
2022-09-11T15:09:12.751Z,59.85
2022-09-11T15:11:41.632Z,59.67
2022-09-11T15:14:23.359Z,57.94
2022-09-11T15:17:02.025Z,57.10
2022-09-11T15:19:30.836Z,57.51
2022-09-11T15:21:59.117Z,59.15
2022-09-11T15:24:27.366Z,59.21
2022-09-11T15:26:55.474Z,59.83
2022-09-11T15:29:30.760Z,59.03
2022-09-11T15:32:01.267Z,59.30
2022-09-11T15:34:33.207Z,59.50
2022-09-11T15:37:01.201Z,59.69
2022-09-11T15:39:29.302Z,59.47
2022-09-11T15:41:57.851Z,59.04
2022-09-11T15:44:28.706Z,58.83
2022-09-11T15:46:58.626Z,57.91
2022-09-11T15:49:28.981Z,59.09
2022-09-11T15:51:58.367Z,58.96
2022-09-11T15:54:26.775Z,59.03
2022-09-11T15:56:54.736Z,58.79
2022-09-11T15:59:22.683Z,58.41
2022-09-11T16:01:51.985Z,58.95
2022-09-11T16:04:22.888Z,59.33
2022-09-11T16:06:52.135Z,59.67
2022-09-11T16:09:21.961Z,59.50
2022-09-11T16:11:50.371Z,58.71
2022-09-11T16:14:19.024Z,58.35
2022-09-11T16:16:48.093Z,58.05
2022-09-11T16:19:18.557Z,57.97
2022-09-11T16:21:46.659Z,58.45
2022-09-11T16:24:15.500Z,58.91
2022-09-11T16:26:44.162Z,58.02
2022-09-11T16:29:14.692Z,58.89
2022-09-11T16:31:43.628Z,58.58
2022-09-11T16:34:12.101Z,59.30
2022-09-11T16:36:42.574Z,59.22
2022-09-11T16:39:12.983Z,59.38
2022-09-11T16:41:41.247Z,59.32
2022-09-11T16:44:11.987Z,60.10
2022-09-11T16:46:40.792Z,59.64
2022-09-11T16:49:09.010Z,60.48
2022-09-11T16:51:37.295Z,59.88
2022-09-11T16:54:07.809Z,61.00
2022-09-11T16:56:35.683Z,61.49
2022-09-11T16:59:03.618Z,62.01
2022-09-11T17:01:31.749Z,62.33
2022-09-11T17:03:59.591Z,62.83
2022-09-11T17:06:30.184Z,62.70
2022-09-11T17:09:00.258Z,62.99
2022-09-11T17:11:31.452Z,63.63
2022-09-11T17:14:01.876Z,63.83
2022-09-11T17:16:32.257Z,64.38
2022-09-11T17:19:01.717Z,64.66
2022-09-11T17:21:35.729Z,64.93
2022-09-11T17:24:05.153Z,65.64
2022-09-11T17:26:35.637Z,65.90
2022-09-11T17:29:04.710Z,66.34
2022-09-11T17:31:32.956Z,66.43
2022-09-11T17:34:01.095Z,66.90
2022-09-11T17:36:29.284Z,66.58
2022-09-11T17:38:59.458Z,66.66
2022-09-11T17:41:27.274Z,66.71
2022-09-11T17:43:56.716Z,66.71
2022-09-11T17:46:25.535Z,66.93
2022-09-11T17:48:53.420Z,67.20
2022-09-11T17:51:24.655Z,67.38
2022-09-11T17:53:55.387Z,67.51
2022-09-11T17:56:25.856Z,67.96
2022-09-11T17:58:56.723Z,68.10
2022-09-11T18:01:26.043Z,68.08
2022-09-11T18:03:54.868Z,68.61
2022-09-11T18:06:27.843Z,68.56
2022-09-11T18:08:56.707Z,68.84
2022-09-11T18:11:24.706Z,69.08
2022-09-11T18:13:53.051Z,69.16
2022-09-11T18:16:22.451Z,69.59
2022-09-11T18:18:50.426Z,69.65
2022-09-11T18:21:18.214Z,69.57
2022-09-11T18:23:46.588Z,69.69
2022-09-11T18:26:22.006Z,69.80
2022-09-11T18:28:49.989Z,69.55
2022-09-11T18:31:18.310Z,69.96
2022-09-11T18:33:54.596Z,69.67
2022-09-11T18:36:23.505Z,69.93
2022-09-11T18:38:51.735Z,70.03
2022-09-11T18:41:20.188Z,70.08
2022-09-11T18:43:47.997Z,70.17
2022-09-11T18:46:16.388Z,70.34
2022-09-11T18:48:45.054Z,70.38
2022-09-11T18:51:15.296Z,70.63
2022-09-11T18:53:43.929Z,70.98
2022-09-11T18:56:12.485Z,70.94
2022-09-11T18:58:41.832Z,70.90
2022-09-11T19:01:11.522Z,71.16
2022-09-11T19:03:41.783Z,71.28
2022-09-11T19:06:12.110Z,71.42
2022-09-11T19:08:43.388Z,71.68
2022-09-11T19:11:13.330Z,71.78
2022-09-11T19:13:42.242Z,71.99
2022-09-11T19:16:10.936Z,71.80
2022-09-11T19:18:40.130Z,72.36
2022-09-11T19:21:10.278Z,72.57
2022-09-11T19:23:40.220Z,72.56
2022-09-11T19:26:12.192Z,72.72
2022-09-11T19:28:42.193Z,72.56
2022-09-11T19:31:12.122Z,72.88
2022-09-11T19:33:40.663Z,73.11
2022-09-11T19:36:12.356Z,73.15
2022-09-11T19:38:42.010Z,73.45
2022-09-11T19:41:14.091Z,73.73
2022-09-11T19:43:43.154Z,73.80
2022-09-11T19:46:12.946Z,73.78
2022-09-11T19:48:41.562Z,74.04
2022-09-11T19:51:10.761Z,73.85
2022-09-11T19:53:39.199Z,74.01
2022-09-11T19:56:07.425Z,74.02
2022-09-11T19:58:38.780Z,74.64
2022-09-11T20:01:08.980Z,74.44
2022-09-11T20:03:38.499Z,74.33
2022-09-11T20:06:06.817Z,74.36
2022-09-11T20:08:36.097Z,74.60
2022-09-11T20:11:06.364Z,74.57
2022-09-11T20:13:36.909Z,74.60
2022-09-11T20:16:05.677Z,74.38
2022-09-11T20:18:33.635Z,75.01
2022-09-11T20:21:03.063Z,75.14
2022-09-11T20:23:30.827Z,75.31
2022-09-11T20:26:08.378Z,75.07
2022-09-11T20:28:37.688Z,75.48
2022-09-11T20:31:13.725Z,75.39
2022-09-11T20:33:41.877Z,75.29
2022-09-11T20:36:10.161Z,75.54
2022-09-11T20:38:37.897Z,75.72
2022-09-11T20:41:07.807Z,75.45
2022-09-11T20:43:37.071Z,75.66
2022-09-11T20:46:05.782Z,75.63
2022-09-11T20:48:33.972Z,75.95
2022-09-11T20:51:06.560Z,75.70
2022-09-11T20:53:34.324Z,76.35
2022-09-11T20:56:03.416Z,76.23
2022-09-11T20:58:31.223Z,76.50
2022-09-11T21:01:00.871Z,76.33
2022-09-11T21:03:29.645Z,76.04
2022-09-11T21:05:57.543Z,76.71
2022-09-11T21:08:26.380Z,77.08
2022-09-11T21:10:54.163Z,76.82
2022-09-11T21:13:21.946Z,77.21
2022-09-11T21:15:49.689Z,76.92
2022-09-11T21:18:18.773Z,77.02
2022-09-11T21:20:54.084Z,77.21
2022-09-11T21:23:21.927Z,77.32
2022-09-11T21:25:52.656Z,77.92
2022-09-11T21:28:21.100Z,77.85
2022-09-11T21:30:49.137Z,77.55
2022-09-11T21:33:18.855Z,77.51
2022-09-11T21:35:52.368Z,77.56
2022-09-11T21:38:20.903Z,77.97
2022-09-11T21:40:48.826Z,77.99
2022-09-11T21:43:16.675Z,77.96
2022-09-11T21:45:44.429Z,78.05
2022-09-11T21:48:14.745Z,78.17
2022-09-11T21:50:44.184Z,77.94
2022-09-11T21:53:12.797Z,77.96
2022-09-11T21:55:41.024Z,78.15
2022-09-11T21:58:09.183Z,78.18
2022-09-11T22:00:42.777Z,77.99
2022-09-11T22:03:12.571Z,78.12
2022-09-11T22:05:43.394Z,78.12
2022-09-11T22:08:13.781Z,78.64
2022-09-11T22:10:42.977Z,78.49
2022-09-11T22:13:13.827Z,78.46
2022-09-11T22:15:41.853Z,78.30
2022-09-11T22:18:09.952Z,78.78
2022-09-11T22:20:38.512Z,78.16
2022-09-11T22:23:06.949Z,78.35
2022-09-11T22:25:36.901Z,78.59
2022-09-11T22:28:04.855Z,78.36
2022-09-11T22:30:33.446Z,78.82
2022-09-11T22:33:01.458Z,78.57
2022-09-11T22:35:29.754Z,78.72
2022-09-11T22:37:57.431Z,78.67
2022-09-11T22:40:25.208Z,78.74
2022-09-11T22:42:54.349Z,78.88
2022-09-11T22:45:22.153Z,79.08
2022-09-11T22:47:49.948Z,79.16
2022-09-11T22:50:17.938Z,79.29
2022-09-11T22:52:45.767Z,79.09
2022-09-11T22:55:13.468Z,79.09
2022-09-11T22:57:41.311Z,79.32
2022-09-11T23:00:14.392Z,79.26
2022-09-11T23:02:42.518Z,79.37
2022-09-11T23:05:28.348Z,79.81
2022-09-11T23:07:56.028Z,79.50
2022-09-11T23:10:25.043Z,79.46
2022-09-11T23:12:53.550Z,79.08
2022-09-11T23:15:22.913Z,79.09
2022-09-11T23:17:50.609Z,79.59
2022-09-11T23:20:19.127Z,79.90
2022-09-11T23:22:46.890Z,79.64
2022-09-11T23:25:14.840Z,79.77
2022-09-11T23:27:45.335Z,79.51
2022-09-11T23:30:13.541Z,79.93
2022-09-11T23:32:42.629Z,79.91
2022-09-11T23:35:10.780Z,79.77
2022-09-11T23:37:43.524Z,79.76
2022-09-11T23:40:13.168Z,80.06
2022-09-11T23:42:40.976Z,79.65
2022-09-11T23:45:13.522Z,79.74
2022-09-11T23:47:42.637Z,79.53
2022-09-11T23:50:10.718Z,79.27
2022-09-11T23:52:39.511Z,79.73
2022-09-11T23:55:08.350Z,79.32
2022-09-11T23:57:36.168Z,79.94
